sensor_id;sensor_type;location;lat;lon;timestamp;temperature;humidity
12276;DHT22;6200;48.144;11.424;2024-03-25T00:00:13;4.60;99.90
12276;DHT22;6200;48.144;11.424;2024-03-25T00:02:40;4.60;99.90
12276;DHT22;6200;48.144;11.424;2024-03-25T00:05:07;4.60;99.90
12276;DHT22;6200;48.144;11.424;2024-03-25T00:07:35;4.70;99.90
12276;DHT22;6200;48.144;11.424;2024-03-25T00:10:01;4.60;99.90
12276;DHT22;6200;48.144;11.424;2024-03-25T00:12:26;4.60;99.90
12276;DHT22;6200;48.144;11.424;2024-03-25T00:14:52;4.70;99.90
12276;DHT22;6200;48.144;11.424;2024-03-25T00:17:17;4.70;99.90
12276;DHT22;6200;48.144;11.424;2024-03-25T00:19:45;4.70;99.90
12276;DHT22;6200;48.144;11.424;2024-03-25T00:22:16;4.70;99.90
12276;DHT22;6200;48.144;11.424;2024-03-25T00:24:42;4.70;99.90
12276;DHT22;6200;48.144;11.424;2024-03-25T00:27:07;4.70;99.90
12276;DHT22;6200;48.144;11.424;2024-03-25T00:29:33;4.70;99.90
12276;DHT22;6200;48.144;11.424;2024-03-25T00:31:58;4.60;99.90
12276;DHT22;6200;48.144;11.424;2024-03-25T00:34:24;4.70;99.90
12276;DHT22;6200;48.144;11.424;2024-03-25T00:36:49;4.70;99.90
12276;DHT22;6200;48.144;11.424;2024-03-25T00:39:15;4.70;99.90
12276;DHT22;6200;48.144;11.424;2024-03-25T00:41:40;4.70;99.90
12276;DHT22;6200;48.144;11.424;2024-03-25T00:44:06;4.70;99.90
12276;DHT22;6200;48.144;11.424;2024-03-25T00:46:32;4.70;99.90
12276;DHT22;6200;48.144;11.424;2024-03-25T00:48:57;4.80;99.90
12276;DHT22;6200;48.144;11.424;2024-03-25T00:51:23;4.80;99.90
12276;DHT22;6200;48.144;11.424;2024-03-25T00:53:49;4.70;99.90
12276;DHT22;6200;48.144;11.424;2024-03-25T00:56:14;4.70;99.90
12276;DHT22;6200;48.144;11.424;2024-03-25T00:58:40;4.70;99.90
12276;DHT22;6200;48.144;11.424;2024-03-25T01:01:06;4.70;99.90
12276;DHT22;6200;48.144;11.424;2024-03-25T01:03:32;4.70;99.90
12276;DHT22;6200;48.144;11.424;2024-03-25T01:05:57;4.70;99.90
12276;DHT22;6200;48.144;11.424;2024-03-25T01:08:23;4.70;99.90
12276;DHT22;6200;48.144;11.424;2024-03-25T01:10:48;4.70;99.90
12276;DHT22;6200;48.144;11.424;2024-03-25T01:13:14;4.70;99.90
12276;DHT22;6200;48.144;11.424;2024-03-25T01:15:39;4.70;99.90
12276;DHT22;6200;48.144;11.424;2024-03-25T01:18:05;4.70;99.90
12276;DHT22;6200;48.144;11.424;2024-03-25T01:20:30;4.70;99.90
12276;DHT22;6200;48.144;11.424;2024-03-25T01:22:56;4.60;99.90
12276;DHT22;6200;48.144;11.424;2024-03-25T01:25:21;4.60;99.90
12276;DHT22;6200;48.144;11.424;2024-03-25T01:27:46;4.60;99.90
12276;DHT22;6200;48.144;11.424;2024-03-25T01:30:12;4.60;99.90
12276;DHT22;6200;48.144;11.424;2024-03-25T01:32:38;4.70;99.90
12276;DHT22;6200;48.144;11.424;2024-03-25T01:35:03;4.60;99.90
12276;DHT22;6200;48.144;11.424;2024-03-25T01:37:29;4.50;99.90
12276;DHT22;6200;48.144;11.424;2024-03-25T01:39:55;4.60;99.90
12276;DHT22;6200;48.144;11.424;2024-03-25T01:42:20;4.60;99.90
12276;DHT22;6200;48.144;11.424;2024-03-25T01:44:45;4.60;99.90
12276;DHT22;6200;48.144;11.424;2024-03-25T01:47:12;4.50;99.90
12276;DHT22;6200;48.144;11.424;2024-03-25T01:49:37;4.50;99.90
12276;DHT22;6200;48.144;11.424;2024-03-25T01:52:04;4.50;99.90
12276;DHT22;6200;48.144;11.424;2024-03-25T01:54:31;4.50;99.90
12276;DHT22;6200;48.144;11.424;2024-03-25T01:56:57;4.50;99.90
12276;DHT22;6200;48.144;11.424;2024-03-25T01:59:24;4.40;99.90
12276;DHT22;6200;48.144;11.424;2024-03-25T02:01:50;4.50;99.90
12276;DHT22;6200;48.144;11.424;2024-03-25T02:04:16;4.40;99.90
12276;DHT22;6200;48.144;11.424;2024-03-25T02:06:41;4.40;99.90
12276;DHT22;6200;48.144;11.424;2024-03-25T02:09:09;4.40;99.90
12276;DHT22;6200;48.144;11.424;2024-03-25T02:11:35;4.40;99.90
12276;DHT22;6200;48.144;11.424;2024-03-25T02:14:01;4.40;99.90
12276;DHT22;6200;48.144;11.424;2024-03-25T02:16:27;4.40;99.90
12276;DHT22;6200;48.144;11.424;2024-03-25T02:18:52;4.40;99.90
12276;DHT22;6200;48.144;11.424;2024-03-25T02:21:18;4.40;99.90
12276;DHT22;6200;48.144;11.424;2024-03-25T02:23:45;4.40;99.90
12276;DHT22;6200;48.144;11.424;2024-03-25T02:26:10;4.40;99.90
12276;DHT22;6200;48.144;11.424;2024-03-25T02:28:36;4.40;99.90
12276;DHT22;6200;48.144;11.424;2024-03-25T02:31:01;4.40;99.90
12276;DHT22;6200;48.144;11.424;2024-03-25T02:33:27;4.40;99.90
12276;DHT22;6200;48.144;11.424;2024-03-25T02:35:52;4.40;99.90
12276;DHT22;6200;48.144;11.424;2024-03-25T02:38:18;4.40;99.90
12276;DHT22;6200;48.144;11.424;2024-03-25T02:40:44;4.40;99.90
12276;DHT22;6200;48.144;11.424;2024-03-25T02:43:10;4.40;99.90
12276;DHT22;6200;48.144;11.424;2024-03-25T02:45:36;4.40;99.90
12276;DHT22;6200;48.144;11.424;2024-03-25T02:48:02;4.40;99.90
12276;DHT22;6200;48.144;11.424;2024-03-25T02:50:27;4.40;99.90
12276;DHT22;6200;48.144;11.424;2024-03-25T02:52:53;4.40;99.90
12276;DHT22;6200;48.144;11.424;2024-03-25T02:55:18;4.30;99.90
12276;DHT22;6200;48.144;11.424;2024-03-25T02:57:44;4.40;99.90
12276;DHT22;6200;48.144;11.424;2024-03-25T03:00:10;4.40;99.90
12276;DHT22;6200;48.144;11.424;2024-03-25T03:02:35;4.40;99.90
12276;DHT22;6200;48.144;11.424;2024-03-25T03:05:01;4.40;99.90
12276;DHT22;6200;48.144;11.424;2024-03-25T03:07:29;4.40;99.90
12276;DHT22;6200;48.144;11.424;2024-03-25T03:09:54;4.40;99.90
12276;DHT22;6200;48.144;11.424;2024-03-25T03:12:20;4.40;99.90
12276;DHT22;6200;48.144;11.424;2024-03-25T03:14:45;4.30;99.90
12276;DHT22;6200;48.144;11.424;2024-03-25T03:17:11;4.40;99.90
12276;DHT22;6200;48.144;11.424;2024-03-25T03:19:36;4.50;99.90
12276;DHT22;6200;48.144;11.424;2024-03-25T03:22:02;4.30;99.90
12276;DHT22;6200;48.144;11.424;2024-03-25T03:24:27;4.40;99.90
12276;DHT22;6200;48.144;11.424;2024-03-25T03:26:53;4.30;99.90
12276;DHT22;6200;48.144;11.424;2024-03-25T03:29:18;4.40;99.90
12276;DHT22;6200;48.144;11.424;2024-03-25T03:31:44;4.30;99.90
12276;DHT22;6200;48.144;11.424;2024-03-25T03:34:09;4.30;99.90
12276;DHT22;6200;48.144;11.424;2024-03-25T03:36:35;4.30;99.90
12276;DHT22;6200;48.144;11.424;2024-03-25T03:39:00;4.30;99.90
12276;DHT22;6200;48.144;11.424;2024-03-25T03:41:26;4.30;99.90
12276;DHT22;6200;48.144;11.424;2024-03-25T03:43:51;4.20;99.90
12276;DHT22;6200;48.144;11.424;2024-03-25T03:46:17;4.20;99.90
12276;DHT22;6200;48.144;11.424;2024-03-25T03:48:42;4.20;99.90
12276;DHT22;6200;48.144;11.424;2024-03-25T03:51:09;4.20;99.90
12276;DHT22;6200;48.144;11.424;2024-03-25T03:53:35;4.10;99.90
12276;DHT22;6200;48.144;11.424;2024-03-25T03:56:02;4.10;99.90
12276;DHT22;6200;48.144;11.424;2024-03-25T03:58:29;4.10;99.90
12276;DHT22;6200;48.144;11.424;2024-03-25T04:00:54;4.00;99.90
12276;DHT22;6200;48.144;11.424;2024-03-25T04:03:20;4.00;99.90
12276;DHT22;6200;48.144;11.424;2024-03-25T04:05:46;4.10;99.90
12276;DHT22;6200;48.144;11.424;2024-03-25T04:08:11;4.00;99.90
12276;DHT22;6200;48.144;11.424;2024-03-25T04:10:38;3.90;99.90
12276;DHT22;6200;48.144;11.424;2024-03-25T04:13:04;3.90;99.90
12276;DHT22;6200;48.144;11.424;2024-03-25T04:15:36;3.90;99.90
12276;DHT22;6200;48.144;11.424;2024-03-25T04:18:02;3.90;99.90
12276;DHT22;6200;48.144;11.424;2024-03-25T04:20:28;3.80;99.90
12276;DHT22;6200;48.144;11.424;2024-03-25T04:22:54;3.80;99.90
12276;DHT22;6200;48.144;11.424;2024-03-25T04:25:20;3.80;99.90
12276;DHT22;6200;48.144;11.424;2024-03-25T04:27:45;3.80;99.90
12276;DHT22;6200;48.144;11.424;2024-03-25T04:30:11;3.80;99.90
12276;DHT22;6200;48.144;11.424;2024-03-25T04:32:38;3.70;99.90
12276;DHT22;6200;48.144;11.424;2024-03-25T04:35:05;3.70;99.90
12276;DHT22;6200;48.144;11.424;2024-03-25T04:37:32;3.70;99.90
12276;DHT22;6200;48.144;11.424;2024-03-25T04:39:57;3.70;99.90
12276;DHT22;6200;48.144;11.424;2024-03-25T04:42:23;3.70;99.90
12276;DHT22;6200;48.144;11.424;2024-03-25T04:44:49;3.70;99.90
12276;DHT22;6200;48.144;11.424;2024-03-25T04:47:16;3.70;99.90
12276;DHT22;6200;48.144;11.424;2024-03-25T04:49:42;3.70;99.90
12276;DHT22;6200;48.144;11.424;2024-03-25T04:52:07;3.70;99.90
12276;DHT22;6200;48.144;11.424;2024-03-25T04:54:33;3.70;99.90
12276;DHT22;6200;48.144;11.424;2024-03-25T04:56:58;3.70;99.90
12276;DHT22;6200;48.144;11.424;2024-03-25T04:59:24;3.80;99.90
12276;DHT22;6200;48.144;11.424;2024-03-25T05:01:49;3.70;99.90
12276;DHT22;6200;48.144;11.424;2024-03-25T05:04:15;4.40;99.90
12276;DHT22;6200;48.144;11.424;2024-03-25T05:06:41;3.60;99.90
12276;DHT22;6200;48.144;11.424;2024-03-25T05:09:06;3.60;99.90
12276;DHT22;6200;48.144;11.424;2024-03-25T05:11:32;3.60;99.90
12276;DHT22;6200;48.144;11.424;2024-03-25T05:13:58;3.60;99.90
12276;DHT22;6200;48.144;11.424;2024-03-25T05:16:24;3.70;99.90
12276;DHT22;6200;48.144;11.424;2024-03-25T05:18:49;3.60;99.90
12276;DHT22;6200;48.144;11.424;2024-03-25T05:21:15;3.60;99.90
12276;DHT22;6200;48.144;11.424;2024-03-25T05:23:40;3.70;99.90
12276;DHT22;6200;48.144;11.424;2024-03-25T05:26:06;3.70;99.90
12276;DHT22;6200;48.144;11.424;2024-03-25T05:28:32;3.80;99.90
12276;DHT22;6200;48.144;11.424;2024-03-25T05:31:08;3.60;99.90
12276;DHT22;6200;48.144;11.424;2024-03-25T05:33:33;3.70;99.90
12276;DHT22;6200;48.144;11.424;2024-03-25T05:35:59;3.70;99.90
12276;DHT22;6200;48.144;11.424;2024-03-25T05:38:26;3.70;99.90
12276;DHT22;6200;48.144;11.424;2024-03-25T05:40:51;3.70;99.90
12276;DHT22;6200;48.144;11.424;2024-03-25T05:43:17;3.80;99.90
12276;DHT22;6200;48.144;11.424;2024-03-25T05:45:53;3.80;99.90
12276;DHT22;6200;48.144;11.424;2024-03-25T05:48:24;3.90;99.90
12276;DHT22;6200;48.144;11.424;2024-03-25T05:53:30;3.90;99.90
12276;DHT22;6200;48.144;11.424;2024-03-25T05:55:56;3.90;99.90
12276;DHT22;6200;48.144;11.424;2024-03-25T05:58:22;4.10;99.90
12276;DHT22;6200;48.144;11.424;2024-03-25T06:00:48;3.90;99.90
12276;DHT22;6200;48.144;11.424;2024-03-25T06:03:14;4.00;99.90
12276;DHT22;6200;48.144;11.424;2024-03-25T06:05:40;3.90;99.90
12276;DHT22;6200;48.144;11.424;2024-03-25T06:08:07;4.00;99.90
12276;DHT22;6200;48.144;11.424;2024-03-25T06:10:39;3.90;99.90
12276;DHT22;6200;48.144;11.424;2024-03-25T06:13:05;4.00;99.90
12276;DHT22;6200;48.144;11.424;2024-03-25T06:15:30;4.00;99.90
12276;DHT22;6200;48.144;11.424;2024-03-25T06:17:56;4.00;99.90
12276;DHT22;6200;48.144;11.424;2024-03-25T06:20:21;4.20;99.90
12276;DHT22;6200;48.144;11.424;2024-03-25T06:22:47;4.20;99.90
12276;DHT22;6200;48.144;11.424;2024-03-25T06:25:12;4.20;99.90
12276;DHT22;6200;48.144;11.424;2024-03-25T06:27:38;4.20;99.90
12276;DHT22;6200;48.144;11.424;2024-03-25T06:30:03;4.30;99.90
12276;DHT22;6200;48.144;11.424;2024-03-25T06:32:47;4.30;99.90
12276;DHT22;6200;48.144;11.424;2024-03-25T06:35:31;4.30;99.90
12276;DHT22;6200;48.144;11.424;2024-03-25T06:37:57;4.40;99.90
12276;DHT22;6200;48.144;11.424;2024-03-25T06:40:22;4.40;99.90
12276;DHT22;6200;48.144;11.424;2024-03-25T06:42:48;4.50;99.90
12276;DHT22;6200;48.144;11.424;2024-03-25T06:45:14;4.50;99.90
12276;DHT22;6200;48.144;11.424;2024-03-25T06:47:41;4.60;99.90
12276;DHT22;6200;48.144;11.424;2024-03-25T06:50:07;4.70;99.90
12276;DHT22;6200;48.144;11.424;2024-03-25T06:52:32;4.80;99.90
12276;DHT22;6200;48.144;11.424;2024-03-25T06:54:58;4.90;99.90
12276;DHT22;6200;48.144;11.424;2024-03-25T06:57:24;5.10;99.90
12276;DHT22;6200;48.144;11.424;2024-03-25T06:59:49;5.30;99.90
12276;DHT22;6200;48.144;11.424;2024-03-25T07:02:15;5.50;99.90
12276;DHT22;6200;48.144;11.424;2024-03-25T07:04:40;5.70;99.90
12276;DHT22;6200;48.144;11.424;2024-03-25T07:07:06;6.10;99.90
12276;DHT22;6200;48.144;11.424;2024-03-25T07:09:31;6.30;99.90
12276;DHT22;6200;48.144;11.424;2024-03-25T07:11:57;6.40;99.90
12276;DHT22;6200;48.144;11.424;2024-03-25T07:14:22;6.50;99.90
12276;DHT22;6200;48.144;11.424;2024-03-25T07:16:48;6.50;99.90
12276;DHT22;6200;48.144;11.424;2024-03-25T07:19:13;6.60;99.90
12276;DHT22;6200;48.144;11.424;2024-03-25T07:21:39;6.70;99.90
12276;DHT22;6200;48.144;11.424;2024-03-25T07:24:04;6.80;99.90
12276;DHT22;6200;48.144;11.424;2024-03-25T07:26:30;6.80;99.90
12276;DHT22;6200;48.144;11.424;2024-03-25T07:28:55;7.00;99.90
12276;DHT22;6200;48.144;11.424;2024-03-25T07:31:21;7.20;99.90
12276;DHT22;6200;48.144;11.424;2024-03-25T07:33:46;7.30;99.90
12276;DHT22;6200;48.144;11.424;2024-03-25T07:36:12;7.40;99.90
12276;DHT22;6200;48.144;11.424;2024-03-25T07:38:37;7.60;99.90
12276;DHT22;6200;48.144;11.424;2024-03-25T07:41:06;7.90;99.90
12276;DHT22;6200;48.144;11.424;2024-03-25T07:43:31;8.00;99.90
12276;DHT22;6200;48.144;11.424;2024-03-25T07:45:57;8.20;99.90
12276;DHT22;6200;48.144;11.424;2024-03-25T07:48:22;8.30;99.90
12276;DHT22;6200;48.144;11.424;2024-03-25T07:50:48;8.50;99.90
12276;DHT22;6200;48.144;11.424;2024-03-25T07:53:13;8.60;99.90
12276;DHT22;6200;48.144;11.424;2024-03-25T07:55:39;8.80;99.90
12276;DHT22;6200;48.144;11.424;2024-03-25T07:58:05;8.90;99.90
12276;DHT22;6200;48.144;11.424;2024-03-25T08:00:30;8.90;99.90
12276;DHT22;6200;48.144;11.424;2024-03-25T08:02:56;9.10;99.90
12276;DHT22;6200;48.144;11.424;2024-03-25T08:05:21;9.20;99.90
12276;DHT22;6200;48.144;11.424;2024-03-25T08:07:47;9.40;99.90
12276;DHT22;6200;48.144;11.424;2024-03-25T08:10:13;9.60;99.90
12276;DHT22;6200;48.144;11.424;2024-03-25T08:12:39;9.60;99.90
12276;DHT22;6200;48.144;11.424;2024-03-25T08:15:05;9.50;99.90
12276;DHT22;6200;48.144;11.424;2024-03-25T08:17:30;9.40;99.90
12276;DHT22;6200;48.144;11.424;2024-03-25T08:19:56;9.60;99.90
12276;DHT22;6200;48.144;11.424;2024-03-25T08:22:21;9.80;99.90
12276;DHT22;6200;48.144;11.424;2024-03-25T08:24:47;10.00;99.90
12276;DHT22;6200;48.144;11.424;2024-03-25T08:27:12;10.20;99.90
12276;DHT22;6200;48.144;11.424;2024-03-25T08:29:38;10.20;99.90
12276;DHT22;6200;48.144;11.424;2024-03-25T08:32:03;10.20;99.90
12276;DHT22;6200;48.144;11.424;2024-03-25T08:34:29;10.00;99.90
12276;DHT22;6200;48.144;11.424;2024-03-25T08:36:54;9.90;99.90
12276;DHT22;6200;48.144;11.424;2024-03-25T08:39:21;9.80;99.90
12276;DHT22;6200;48.144;11.424;2024-03-25T08:41:46;9.80;99.90
12276;DHT22;6200;48.144;11.424;2024-03-25T08:44:12;9.80;99.90
12276;DHT22;6200;48.144;11.424;2024-03-25T08:46:39;9.90;99.90
12276;DHT22;6200;48.144;11.424;2024-03-25T08:49:04;10.20;99.90
12276;DHT22;6200;48.144;11.424;2024-03-25T08:51:30;10.20;99.90
12276;DHT22;6200;48.144;11.424;2024-03-25T08:53:55;10.30;99.90
12276;DHT22;6200;48.144;11.424;2024-03-25T08:56:21;10.00;99.90
12276;DHT22;6200;48.144;11.424;2024-03-25T08:58:46;10.10;99.90
12276;DHT22;6200;48.144;11.424;2024-03-25T09:01:12;10.20;99.90
12276;DHT22;6200;48.144;11.424;2024-03-25T09:03:40;10.10;99.90
12276;DHT22;6200;48.144;11.424;2024-03-25T09:06:06;10.00;99.90
12276;DHT22;6200;48.144;11.424;2024-03-25T09:08:32;10.20;99.90
12276;DHT22;6200;48.144;11.424;2024-03-25T09:11:18;10.40;99.90
12276;DHT22;6200;48.144;11.424;2024-03-25T09:13:44;10.50;99.70
12276;DHT22;6200;48.144;11.424;2024-03-25T09:16:09;10.70;98.70
12276;DHT22;6200;48.144;11.424;2024-03-25T09:18:34;10.90;97.60
12276;DHT22;6200;48.144;11.424;2024-03-25T09:21:00;11.10;98.50
12276;DHT22;6200;48.144;11.424;2024-03-25T09:23:26;11.50;99.40
12276;DHT22;6200;48.144;11.424;2024-03-25T09:25:54;12.00;99.40
12276;DHT22;6200;48.144;11.424;2024-03-25T09:28:20;12.60;98.10
12276;DHT22;6200;48.144;11.424;2024-03-25T09:30:47;13.10;94.20
12276;DHT22;6200;48.144;11.424;2024-03-25T09:33:12;13.50;92.90
12276;DHT22;6200;48.144;11.424;2024-03-25T09:35:39;13.50;92.90
12276;DHT22;6200;48.144;11.424;2024-03-25T09:38:05;14.10;92.40
12276;DHT22;6200;48.144;11.424;2024-03-25T09:40:31;14.40;90.50
12276;DHT22;6200;48.144;11.424;2024-03-25T09:42:57;14.60;91.10
12276;DHT22;6200;48.144;11.424;2024-03-25T09:45:27;16.60;86.30
12276;DHT22;6200;48.144;11.424;2024-03-25T09:47:55;18.80;80.20
12276;DHT22;6200;48.144;11.424;2024-03-25T09:50:20;20.00;75.60
12276;DHT22;6200;48.144;11.424;2024-03-25T09:52:50;21.30;66.80
12276;DHT22;6200;48.144;11.424;2024-03-25T09:55:16;22.20;65.00
12276;DHT22;6200;48.144;11.424;2024-03-25T09:57:45;22.70;61.80
12276;DHT22;6200;48.144;11.424;2024-03-25T10:00:11;20.40;59.10
12276;DHT22;6200;48.144;11.424;2024-03-25T10:02:39;19.30;61.60
12276;DHT22;6200;48.144;11.424;2024-03-25T10:05:08;18.50;62.40
12276;DHT22;6200;48.144;11.424;2024-03-25T10:07:34;20.40;59.20
12276;DHT22;6200;48.144;11.424;2024-03-25T10:10:03;20.00;57.10
12276;DHT22;6200;48.144;11.424;2024-03-25T10:12:30;18.50;58.80
12276;DHT22;6200;48.144;11.424;2024-03-25T10:14:56;17.00;61.10
12276;DHT22;6200;48.144;11.424;2024-03-25T10:17:22;16.10;62.30
12276;DHT22;6200;48.144;11.424;2024-03-25T10:19:48;15.50;66.50
12276;DHT22;6200;48.144;11.424;2024-03-25T10:22:13;15.30;67.90
12276;DHT22;6200;48.144;11.424;2024-03-25T10:24:43;15.20;67.10
12276;DHT22;6200;48.144;11.424;2024-03-25T10:27:20;15.90;67.60
12276;DHT22;6200;48.144;11.424;2024-03-25T10:29:46;17.80;63.80
12276;DHT22;6200;48.144;11.424;2024-03-25T10:32:15;19.80;62.30
12276;DHT22;6200;48.144;11.424;2024-03-25T10:34:41;18.30;58.00
12276;DHT22;6200;48.144;11.424;2024-03-25T10:37:09;17.30;61.60
12276;DHT22;6200;48.144;11.424;2024-03-25T10:39:39;19.00;63.60
12276;DHT22;6200;48.144;11.424;2024-03-25T10:42:12;20.10;56.20
12276;DHT22;6200;48.144;11.424;2024-03-25T10:44:39;20.00;56.50
12276;DHT22;6200;48.144;11.424;2024-03-25T10:47:06;19.30;55.30
12276;DHT22;6200;48.144;11.424;2024-03-25T10:49:48;18.80;58.00
12276;DHT22;6200;48.144;11.424;2024-03-25T10:52:15;17.90;58.50
12276;DHT22;6200;48.144;11.424;2024-03-25T10:54:43;17.70;58.90
12276;DHT22;6200;48.144;11.424;2024-03-25T10:57:11;17.30;60.00
12276;DHT22;6200;48.144;11.424;2024-03-25T10:59:38;16.90;58.10
12276;DHT22;6200;48.144;11.424;2024-03-25T11:02:09;16.60;60.10
12276;DHT22;6200;48.144;11.424;2024-03-25T11:04:35;16.30;57.60
12276;DHT22;6200;48.144;11.424;2024-03-25T11:07:12;16.30;58.90
12276;DHT22;6200;48.144;11.424;2024-03-25T11:09:38;15.60;61.70
12276;DHT22;6200;48.144;11.424;2024-03-25T11:12:04;16.30;60.40
12276;DHT22;6200;48.144;11.424;2024-03-25T11:14:30;16.50;60.40
12276;DHT22;6200;48.144;11.424;2024-03-25T11:16:59;16.80;62.50
12276;DHT22;6200;48.144;11.424;2024-03-25T11:19:29;16.80;59.70
12276;DHT22;6200;48.144;11.424;2024-03-25T11:22:07;17.00;60.30
12276;DHT22;6200;48.144;11.424;2024-03-25T11:24:34;17.10;59.60
12276;DHT22;6200;48.144;11.424;2024-03-25T11:27:02;17.20;60.00
12276;DHT22;6200;48.144;11.424;2024-03-25T11:29:27;17.20;56.30
12276;DHT22;6200;48.144;11.424;2024-03-25T11:31:53;17.20;59.40
12276;DHT22;6200;48.144;11.424;2024-03-25T11:34:19;17.00;57.00
12276;DHT22;6200;48.144;11.424;2024-03-25T11:36:45;16.80;53.50
12276;DHT22;6200;48.144;11.424;2024-03-25T11:39:13;16.30;55.40
12276;DHT22;6200;48.144;11.424;2024-03-25T11:41:42;15.70;55.80
12276;DHT22;6200;48.144;11.424;2024-03-25T11:44:08;15.60;57.20
12276;DHT22;6200;48.144;11.424;2024-03-25T11:46:36;15.20;57.00
12276;DHT22;6200;48.144;11.424;2024-03-25T11:49:06;15.00;60.70
12276;DHT22;6200;48.144;11.424;2024-03-25T11:51:33;15.20;61.10
12276;DHT22;6200;48.144;11.424;2024-03-25T11:53:59;15.50;61.60
12276;DHT22;6200;48.144;11.424;2024-03-25T11:56:25;16.10;62.70
12276;DHT22;6200;48.144;11.424;2024-03-25T11:58:51;16.50;59.10
12276;DHT22;6200;48.144;11.424;2024-03-25T12:01:16;16.70;58.80
12276;DHT22;6200;48.144;11.424;2024-03-25T12:03:42;16.60;54.50
12276;DHT22;6200;48.144;11.424;2024-03-25T12:06:07;16.50;57.60
12276;DHT22;6200;48.144;11.424;2024-03-25T12:08:33;16.50;58.20
12276;DHT22;6200;48.144;11.424;2024-03-25T12:11:02;16.60;56.90
12276;DHT22;6200;48.144;11.424;2024-03-25T12:13:43;16.60;54.80
12276;DHT22;6200;48.144;11.424;2024-03-25T12:16:09;16.60;56.20
12276;DHT22;6200;48.144;11.424;2024-03-25T12:18:36;17.50;59.30
12276;DHT22;6200;48.144;11.424;2024-03-25T12:21:05;16.50;58.50
12276;DHT22;6200;48.144;11.424;2024-03-25T12:23:32;16.70;56.30
12276;DHT22;6200;48.144;11.424;2024-03-25T12:26:01;16.70;57.90
12276;DHT22;6200;48.144;11.424;2024-03-25T12:28:28;16.50;55.90
12276;DHT22;6200;48.144;11.424;2024-03-25T12:30:55;16.20;56.50
12276;DHT22;6200;48.144;11.424;2024-03-25T12:33:22;15.80;56.90
12276;DHT22;6200;48.144;11.424;2024-03-25T12:35:51;15.70;55.90
12276;DHT22;6200;48.144;11.424;2024-03-25T12:38:26;15.20;56.50
12276;DHT22;6200;48.144;11.424;2024-03-25T12:41:07;14.40;57.30
12276;DHT22;6200;48.144;11.424;2024-03-25T12:43:35;14.10;57.50
12276;DHT22;6200;48.144;11.424;2024-03-25T12:46:00;14.20;59.10
12276;DHT22;6200;48.144;11.424;2024-03-25T12:48:26;14.60;62.70
12276;DHT22;6200;48.144;11.424;2024-03-25T12:50:52;14.60;58.30
12276;DHT22;6200;48.144;11.424;2024-03-25T12:53:19;14.70;56.50
12276;DHT22;6200;48.144;11.424;2024-03-25T12:55:46;14.60;58.60
12276;DHT22;6200;48.144;11.424;2024-03-25T12:58:11;14.60;57.50
12276;DHT22;6200;48.144;11.424;2024-03-25T13:00:38;14.90;59.20
12276;DHT22;6200;48.144;11.424;2024-03-25T13:03:12;15.10;59.20
12276;DHT22;6200;48.144;11.424;2024-03-25T13:05:38;15.10;57.50
12276;DHT22;6200;48.144;11.424;2024-03-25T13:08:04;15.40;58.30
12276;DHT22;6200;48.144;11.424;2024-03-25T13:10:30;15.50;58.00
12276;DHT22;6200;48.144;11.424;2024-03-25T13:12:56;15.70;56.10
12276;DHT22;6200;48.144;11.424;2024-03-25T13:15:22;15.60;57.80
12276;DHT22;6200;48.144;11.424;2024-03-25T13:17:47;15.80;57.80
12276;DHT22;6200;48.144;11.424;2024-03-25T13:20:13;15.60;55.40
12276;DHT22;6200;48.144;11.424;2024-03-25T13:22:39;15.60;57.00
12276;DHT22;6200;48.144;11.424;2024-03-25T13:25:05;15.60;59.40
12276;DHT22;6200;48.144;11.424;2024-03-25T13:27:31;15.80;58.60
12276;DHT22;6200;48.144;11.424;2024-03-25T13:29:56;15.70;57.70
12276;DHT22;6200;48.144;11.424;2024-03-25T13:32:22;15.40;56.50
12276;DHT22;6200;48.144;11.424;2024-03-25T13:34:49;15.20;56.80
12276;DHT22;6200;48.144;11.424;2024-03-25T13:37:14;15.10;57.70
12276;DHT22;6200;48.144;11.424;2024-03-25T13:39:40;15.20;58.50
12276;DHT22;6200;48.144;11.424;2024-03-25T13:42:05;15.20;58.50
12276;DHT22;6200;48.144;11.424;2024-03-25T13:44:31;15.40;56.90
12276;DHT22;6200;48.144;11.424;2024-03-25T13:46:57;15.50;58.20
12276;DHT22;6200;48.144;11.424;2024-03-25T13:49:22;15.40;55.10
12276;DHT22;6200;48.144;11.424;2024-03-25T13:51:51;15.30;55.20
12276;DHT22;6200;48.144;11.424;2024-03-25T13:54:21;15.30;55.60
12276;DHT22;6200;48.144;11.424;2024-03-25T13:56:46;15.40;55.20
12276;DHT22;6200;48.144;11.424;2024-03-25T13:59:12;15.50;56.70
12276;DHT22;6200;48.144;11.424;2024-03-25T14:01:37;15.40;56.20
12276;DHT22;6200;48.144;11.424;2024-03-25T14:04:03;15.40;54.00
12276;DHT22;6200;48.144;11.424;2024-03-25T14:06:29;15.10;55.60
12276;DHT22;6200;48.144;11.424;2024-03-25T14:08:55;15.00;54.80
12276;DHT22;6200;48.144;11.424;2024-03-25T14:11:20;14.90;56.30
12276;DHT22;6200;48.144;11.424;2024-03-25T14:13:46;14.80;56.10
12276;DHT22;6200;48.144;11.424;2024-03-25T14:16:11;14.40;55.70
12276;DHT22;6200;48.144;11.424;2024-03-25T14:18:37;14.00;56.10
12276;DHT22;6200;48.144;11.424;2024-03-25T14:21:03;14.10;58.80
12276;DHT22;6200;48.144;11.424;2024-03-25T14:23:28;14.10;57.30
12276;DHT22;6200;48.144;11.424;2024-03-25T14:25:54;14.20;58.20
12276;DHT22;6200;48.144;11.424;2024-03-25T14:28:19;14.20;57.20
12276;DHT22;6200;48.144;11.424;2024-03-25T14:30:45;14.20;56.40
12276;DHT22;6200;48.144;11.424;2024-03-25T14:33:11;14.30;58.10
12276;DHT22;6200;48.144;11.424;2024-03-25T14:35:38;14.20;55.70
12276;DHT22;6200;48.144;11.424;2024-03-25T14:38:04;14.20;56.90
12276;DHT22;6200;48.144;11.424;2024-03-25T14:40:29;14.20;56.00
12276;DHT22;6200;48.144;11.424;2024-03-25T14:42:55;14.10;57.10
12276;DHT22;6200;48.144;11.424;2024-03-25T14:45:20;14.00;56.10
12276;DHT22;6200;48.144;11.424;2024-03-25T14:47:46;14.10;57.30
12276;DHT22;6200;48.144;11.424;2024-03-25T14:50:11;14.10;57.40
12276;DHT22;6200;48.144;11.424;2024-03-25T14:52:37;14.00;56.10
12276;DHT22;6200;48.144;11.424;2024-03-25T14:55:03;14.00;55.90
12276;DHT22;6200;48.144;11.424;2024-03-25T14:57:28;13.90;58.40
12276;DHT22;6200;48.144;11.424;2024-03-25T14:59:54;13.90;58.30
12276;DHT22;6200;48.144;11.424;2024-03-25T15:02:19;13.90;56.60
12276;DHT22;6200;48.144;11.424;2024-03-25T15:04:45;14.00;57.90
12276;DHT22;6200;48.144;11.424;2024-03-25T15:07:11;13.90;56.00
12276;DHT22;6200;48.144;11.424;2024-03-25T15:09:36;13.90;57.00
12276;DHT22;6200;48.144;11.424;2024-03-25T15:12:03;13.80;57.20
12276;DHT22;6200;48.144;11.424;2024-03-25T15:14:29;13.70;59.30
12276;DHT22;6200;48.144;11.424;2024-03-25T15:16:56;13.50;59.50
12276;DHT22;6200;48.144;11.424;2024-03-25T15:19:23;13.30;59.60
12276;DHT22;6200;48.144;11.424;2024-03-25T15:21:49;13.30;62.10
12276;DHT22;6200;48.144;11.424;2024-03-25T15:24:14;13.30;61.60
12276;DHT22;6200;48.144;11.424;2024-03-25T15:26:40;13.30;60.90
12276;DHT22;6200;48.144;11.424;2024-03-25T15:29:05;13.30;60.50
12276;DHT22;6200;48.144;11.424;2024-03-25T15:31:31;13.20;59.80
12276;DHT22;6200;48.144;11.424;2024-03-25T15:33:56;13.20;61.20
12276;DHT22;6200;48.144;11.424;2024-03-25T15:36:22;13.00;61.10